Time;durP1;ratioP1;P1;durP2;ratioP2;P2;SDS_P1;SDS_P2;PMS_P1;PMS_P2;Temp;Humidity;BMP_temperature;BMP_pressure;BME280_temperature;BME280_humidity;BME280_pressure;Samples;Min_cycle;Max_cycle;Signal;HPM_P1;HPM_P2
2022/05/04 00:01:56;;;;;;;6.43;2.78;;;17.20;90.10;;;;;;5056608;28;20029;-71
2022/05/04 00:04:23;;;;;;;5.93;2.35;;;17.30;87.90;;;;;;5059326;28;20024;-69
2022/05/04 00:06:50;;;;;;;5.88;1.88;;;17.40;87.10;;;;;;5064454;28;20111;-69
2022/05/04 00:09:18;;;;;;;4.47;2.10;;;17.60;89.40;;;;;;5068692;28;20115;-68
2022/05/04 00:11:45;;;;;;;4.70;1.60;;;17.70;87.20;;;;;;5070390;28;20024;-69
2022/05/04 00:14:12;;;;;;;4.53;1.48;;;17.90;87.00;;;;;;5062172;28;20028;-66
2022/05/04 00:16:40;;;;;;;5.57;1.75;;;18.00;87.50;;;;;;5064989;28;20041;-66
2022/05/04 00:19:07;;;;;;;6.40;1.85;;;18.20;87.40;;;;;;5068812;28;20028;-66
2022/05/04 00:21:34;;;;;;;4.13;2.05;;;18.20;84.90;;;;;;5052149;28;20524;-68
2022/05/04 00:24:02;;;;;;;6.85;1.63;;;18.40;85.00;;;;;;5055990;28;20020;-68
2022/05/04 00:26:29;;;;;;;9.75;2.03;;;18.50;85.70;;;;;;5066401;28;20111;-64
2022/05/04 00:28:56;;;;;;;4.60;1.60;;;18.60;82.70;;;;;;5053171;28;20086;-68
2022/05/04 00:31:23;;;;;;;4.22;1.60;;;18.50;82.60;;;;;;5065790;28;20635;-67
2022/05/04 00:33:50;;;;;;;2.72;1.20;;;18.50;82.00;;;;;;5057311;28;20044;-68
2022/05/04 00:36:21;;;;;;;5.82;2.00;;;18.70;81.90;;;;;;5057230;28;20044;-68
2022/05/04 00:38:48;;;;;;;3.65;1.42;;;18.90;84.60;;;;;;5055897;28;20107;-69
2022/05/04 00:41:15;;;;;;;3.85;1.33;;;19.00;83.50;;;;;;5056531;28;20027;-69
2022/05/04 00:43:49;;;;;;;3.08;1.73;;;19.10;81.80;;;;;;5061590;28;20488;-69
2022/05/04 00:46:17;;;;;;;8.05;1.52;;;19.20;82.80;;;;;;5057792;28;20127;-68
2022/05/04 00:48:44;;;;;;;5.55;1.50;;;19.30;81.50;;;;;;5057650;28;20031;-69
2022/05/04 00:51:11;;;;;;;8.75;1.45;;;19.40;78.60;;;;;;5059946;28;20363;-69
2022/05/04 00:53:40;;;;;;;9.73;1.80;;;19.50;80.00;;;;;;5059856;28;20029;-69
2022/05/04 00:56:09;;;;;;;3.88;1.30;;;19.60;76.90;;;;;;5051227;28;20052;-69
2022/05/04 00:58:56;;;;;;;6.30;1.73;;;19.80;78.30;;;;;;5065027;28;20025;-69
2022/05/04 01:01:30;;;;;;;3.38;1.30;;;20.00;79.40;;;;;;5066354;28;20067;-70
2022/05/04 01:03:59;;;;;;;5.13;1.40;;;20.20;78.40;;;;;;5058953;28;20032;-70
2022/05/04 01:06:27;;;;;;;6.95;1.67;;;20.40;78.10;;;;;;5064185;28;20029;-69
2022/05/04 01:08:55;;;;;;;2.90;0.90;;;20.40;75.40;;;;;;5065393;28;20032;-69
2022/05/04 01:11:22;;;;;;;3.08;1.73;;;20.60;74.80;;;;;;5059736;28;20086;-69
2022/05/04 01:14:01;;;;;;;4.03;1.13;;;20.70;76.10;;;;;;5059813;28;20053;-69
2022/05/04 01:16:29;;;;;;;4.43;1.27;;;20.90;76.50;;;;;;5065894;28;20037;-69
2022/05/04 01:18:57;;;;;;;3.88;1.20;;;21.00;76.30;;;;;;5064635;28;20028;-69
2022/05/04 01:21:25;;;;;;;4.10;1.33;;;21.20;73.70;;;;;;5051040;28;20496;-71
2022/05/04 01:23:54;;;;;;;3.65;1.20;;;21.30;76.10;;;;;;5059215;28;20063;-68
2022/05/04 01:26:21;;;;;;;3.20;1.13;;;21.40;72.40;;;;;;5057327;28;20093;-67
2022/05/04 01:28:49;;;;;;;3.75;1.38;;;21.50;72.50;;;;;;5051814;28;20056;-69
2022/05/04 01:31:16;;;;;;;2.65;1.30;;;21.70;70.30;;;;;;5052485;28;20071;-68
2022/05/04 01:33:43;;;;;;;3.05;0.70;;;21.80;73.50;;;;;;5053746;28;20044;-68
2022/05/04 01:36:11;;;;;;;4.35;1.38;;;21.90;71.90;;;;;;5047843;28;20036;-67
2022/05/04 01:38:38;;;;;;;2.85;1.20;;;22.20;73.80;;;;;;5058603;28;20108;-68
2022/05/04 01:42:02;;;;;;;5.65;0.90;;;22.20;67.50;;;;;;5054629;28;20060;-69
2022/05/04 01:43:52;;;;;;;3.33;1.20;;;22.40;69.60;;;;;;5048267;28;20044;-68
2022/05/04 01:46:20;;;;;;;3.60;1.00;;;22.40;67.70;;;;;;5053369;28;20025;-67
2022/05/04 01:48:49;;;;;;;4.45;1.80;;;22.50;68.40;;;;;;5060629;28;20009;-68
2022/05/04 01:51:16;;;;;;;6.05;1.67;;;22.50;65.40;;;;;;5063070;28;20469;-68
2022/05/04 01:53:45;;;;;;;5.30;2.42;;;22.60;69.00;;;;;;5060485;28;20029;-69
2022/05/04 01:56:13;;;;;;;5.50;1.27;;;22.50;65.80;;;;;;5068468;28;20037;-68
2022/05/04 01:58:41;;;;;;;5.05;1.05;;;22.50;65.30;;;;;;5066835;28;20029;-69
2022/05/04 02:01:08;;;;;;;2.17;0.90;;;22.60;68.00;;;;;;5066708;28;20468;-68
2022/05/04 02:03:37;;;;;;;3.58;1.38;;;22.70;69.00;;;;;;5084221;28;20031;-68
2022/05/04 02:06:04;;;;;;;4.72;1.50;;;22.80;66.90;;;;;;5061787;28;20024;-68
2022/05/04 02:08:33;;;;;;;4.07;0.98;;;23.00;66.30;;;;;;5062211;28;20032;-68
2022/05/04 02:11:01;;;;;;;2.47;0.90;;;23.00;66.30;;;;;;5054442;28;20056;-68
2022/05/04 02:13:28;;;;;;;2.55;0.70;;;23.20;65.30;;;;;;5060623;28;20111;-68
2022/05/04 02:15:56;;;;;;;8.00;1.10;;;23.30;65.40;;;;;;5057193;28;20036;-68
2022/05/04 02:18:23;;;;;;;4.07;1.00;;;23.50;66.50;;;;;;5051911;28;20024;-68
2022/05/04 02:20:50;;;;;;;3.40;1.05;;;23.50;63.80;;;;;;5065106;28;20032;-67
2022/05/04 02:23:18;;;;;;;6.05;1.55;;;23.60;64.30;;;;;;5063852;28;20025;-69
2022/05/04 02:25:46;;;;;;;2.40;1.05;;;23.80;65.80;;;;;;5062195;28;20406;-67
2022/05/04 02:28:13;;;;;;;1.80;0.70;;;23.90;65.50;;;;;;5069976;28;20028;-67
2022/05/04 02:30:40;;;;;;;3.17;0.85;;;24.10;63.00;;;;;;5065113;28;20104;-68
2022/05/04 02:33:07;;;;;;;1.90;0.98;;;24.10;61.80;;;;;;5068222;28;20052;-68
2022/05/04 02:38:21;;;;;;;3.83;1.00;;;24.20;60.00;;;;;;5070256;28;20039;-69
2022/05/04 02:40:49;;;;;;;1.83;0.80;;;24.20;59.00;;;;;;5067660;28;20039;-68
2022/05/04 02:43:17;;;;;;;10.63;0.93;;;24.20;60.60;;;;;;5061161;28;20028;-69
2022/05/04 02:45:44;;;;;;;1.92;0.82;;;24.20;59.10;;;;;;5064048;28;20098;-68
2022/05/04 02:48:12;;;;;;;4.90;0.90;;;24.30;60.70;;;;;;5070077;28;20447;-68
2022/05/04 02:50:39;;;;;;;2.47;0.73;;;24.40;62.10;;;;;;5060787;28;20029;-68
2022/05/04 02:53:06;;;;;;;3.88;0.93;;;24.60;60.70;;;;;;5061084;28;20354;-67
2022/05/04 02:55:33;;;;;;;4.32;1.13;;;24.70;58.80;;;;;;5065170;28;20082;-68
2022/05/04 02:58:01;;;;;;;3.10;0.90;;;24.70;58.00;;;;;;5066371;28;20100;-68
2022/05/04 03:00:28;;;;;;;3.45;0.80;;;24.70;57.80;;;;;;5067858;28;20017;-68
2022/05/04 03:02:55;;;;;;;4.65;0.95;;;24.70;57.90;;;;;;5058561;28;20031;-68
2022/05/04 03:05:23;;;;;;;4.00;0.88;;;24.60;57.10;;;;;;5069761;28;20020;-68
2022/05/04 03:07:52;;;;;;;4.93;0.88;;;24.60;57.50;;;;;;5064165;28;20020;-68
2022/05/04 03:10:22;;;;;;;2.60;0.60;;;24.60;59.40;;;;;;5067009;28;20123;-69
2022/05/04 03:12:52;;;;;;;6.13;1.02;;;24.80;56.90;;;;;;5086166;28;20058;-68
2022/05/04 03:15:19;;;;;;;2.30;0.95;;;24.80;58.10;;;;;;5061460;28;20074;-69
2022/05/04 03:17:46;;;;;;;3.42;0.88;;;24.80;57.90;;;;;;5070922;28;20039;-68
2022/05/04 03:20:14;;;;;;;5.20;1.08;;;24.80;56.40;;;;;;5066567;28;20071;-65
2022/05/04 03:22:41;;;;;;;2.03;1.00;;;24.70;57.80;;;;;;5068075;28;20427;-70
2022/05/04 03:25:12;;;;;;;6.63;0.90;;;24.80;58.60;;;;;;5068296;28;20017;-70
2022/05/04 03:27:39;;;;;;;3.22;1.00;;;24.80;58.30;;;;;;5065704;28;20028;-71
2022/05/04 03:30:07;;;;;;;3.75;1.70;;;24.90;58.50;;;;;;5086236;28;20397;-70
2022/05/04 03:32:34;;;;;;;2.80;1.10;;;25.00;56.20;;;;;;5069299;28;20044;-69
2022/05/04 03:35:02;;;;;;;6.82;0.85;;;25.00;57.40;;;;;;5059319;28;20029;-69
2022/05/04 03:37:29;;;;;;;2.70;0.85;;;25.10;56.40;;;;;;5069482;28;20400;-69
2022/05/04 03:39:56;;;;;;;2.40;0.85;;;25.20;57.00;;;;;;5062033;28;20116;-70
2022/05/04 03:42:24;;;;;;;1.38;0.80;;;25.20;56.70;;;;;;5066161;28;20040;-70
2022/05/04 03:44:54;;;;;;;1.98;0.57;;;25.00;55.50;;;;;;5070440;28;20024;-69
2022/05/04 03:47:21;;;;;;;2.65;0.80;;;24.80;55.90;;;;;;5070446;28;20050;-68
2022/05/04 03:49:48;;;;;;;3.63;0.95;;;24.60;55.80;;;;;;5069083;28;20111;-69
2022/05/04 03:52:18;;;;;;;3.20;0.98;;;24.60;56.70;;;;;;5070168;28;20111;-68
2022/05/04 03:54:45;;;;;;;1.67;0.70;;;24.50;56.80;;;;;;5066330;28;20043;-69
2022/05/04 03:57:12;;;;;;;8.38;0.90;;;24.50;57.00;;;;;;5063404;28;20477;-69
2022/05/04 03:59:40;;;;;;;4.10;0.85;;;24.60;57.10;;;;;;5069899;28;20036;-68
2022/05/04 04:02:07;;;;;;;3.08;1.05;;;24.80;58.40;;;;;;5069890;28;20032;-69
2022/05/04 04:04:34;;;;;;;3.50;0.85;;;25.10;57.70;;;;;;5070406;28;20020;-66
2022/05/04 04:07:01;;;;;;;3.60;0.82;;;25.10;54.90;;;;;;5070122;28;20027;-69
2022/05/04 04:09:28;;;;;;;3.85;1.00;;;25.10;54.90;;;;;;5069214;28;20211;-70
2022/05/04 04:11:56;;;;;;;3.28;0.90;;;25.10;54.80;;;;;;5069029;28;20029;-70
2022/05/04 04:14:23;;;;;;;7.40;1.50;;;25.20;56.10;;;;;;5063850;28;20099;-69
2022/05/04 04:16:50;;;;;;;2.53;1.23;;;25.30;55.10;;;;;;5067652;28;20036;-69
2022/05/04 04:19:17;;;;;;;3.95;1.42;;;25.40;55.90;;;;;;5069565;28;20020;-69
2022/05/04 04:21:50;;;;;;;6.68;1.63;;;25.50;55.10;;;;;;5068992;28;20073;-67
2022/05/04 04:24:18;;;;;;;6.40;1.55;;;25.50;54.70;;;;;;5067641;28;20089;-70
2022/05/04 04:26:45;;;;;;;2.03;0.95;;;25.50;55.20;;;;;;5067253;28;20111;-68
2022/05/04 04:29:12;;;;;;;4.88;0.80;;;25.50;54.40;;;;;;5063790;28;20020;-68
2022/05/04 04:31:40;;;;;;;4.45;1.33;;;25.40;54.90;;;;;;5060323;28;20054;-67
2022/05/04 04:34:07;;;;;;;3.75;1.00;;;25.30;54.70;;;;;;5063387;28;20056;-66
2022/05/04 04:36:35;;;;;;;2.78;0.90;;;25.20;55.00;;;;;;5066986;28;20033;-65
2022/05/04 04:39:02;;;;;;;4.35;1.25;;;25.00;55.50;;;;;;5064419;28;20032;-66
2022/05/04 04:41:30;;;;;;;3.72;1.13;;;25.00;55.60;;;;;;5067946;28;20086;-67
2022/05/04 04:43:57;;;;;;;4.68;1.27;;;25.00;54.60;;;;;;5060142;28;20604;-67
2022/05/04 04:46:24;;;;;;;5.82;1.45;;;25.00;54.70;;;;;;5067617;28;20097;-68
2022/05/04 04:48:51;;;;;;;6.80;1.48;;;25.10;54.70;;;;;;5068341;28;20029;-66
2022/05/04 04:51:18;;;;;;;4.63;1.20;;;25.10;54.00;;;;;;5065559;28;20013;-66
2022/05/04 04:53:46;;;;;;;5.70;1.40;;;25.00;53.50;;;;;;5067706;28;20492;-66
2022/05/04 04:56:13;;;;;;;4.32;1.52;;;24.90;53.20;;;;;;5065856;28;20505;-67
2022/05/04 04:58:40;;;;;;;3.17;1.00;;;24.80;53.20;;;;;;5060861;28;20036;-69
2022/05/04 05:01:08;;;;;;;3.20;0.88;;;24.60;54.00;;;;;;5059896;28;20430;-68
2022/05/04 05:03:35;;;;;;;7.30;1.88;;;24.50;55.40;;;;;;5056782;28;20161;-68
2022/05/04 05:06:02;;;;;;;4.13;1.52;;;24.40;56.50;;;;;;5064041;28;20549;-69
2022/05/04 05:08:29;;;;;;;3.08;1.00;;;24.30;55.60;;;;;;5065412;28;20048;-68
2022/05/04 05:10:56;;;;;;;2.95;1.20;;;24.30;56.40;;;;;;5063422;28;20025;-67
2022/05/04 05:13:24;;;;;;;2.67;1.10;;;24.20;56.00;;;;;;5063351;28;20024;-67
2022/05/04 05:16:09;;;;;;;4.20;1.42;;;24.20;56.10;;;;;;5066374;28;20037;-68
2022/05/04 05:18:38;;;;;;;2.08;0.88;;;24.10;56.30;;;;;;5060790;28;20021;-67
2022/05/04 05:21:05;;;;;;;2.92;0.88;;;24.10;57.20;;;;;;5067772;28;20058;-67
2022/05/04 05:23:33;;;;;;;3.10;0.90;;;24.00;56.60;;;;;;5076684;28;20111;-67
2022/05/04 05:26:00;;;;;;;2.35;0.73;;;24.00;57.50;;;;;;5066387;28;20035;-67
2022/05/04 05:28:27;;;;;;;3.38;0.90;;;24.00;56.00;;;;;;5064355;28;20385;-68
2022/05/04 05:30:54;;;;;;;2.17;1.20;;;24.10;56.20;;;;;;5067946;28;20306;-67
2022/05/04 05:33:21;;;;;;;2.53;1.23;;;24.10;55.50;;;;;;5065721;28;20128;-68
2022/05/04 05:35:49;;;;;;;6.93;0.90;;;24.20;56.10;;;;;;5065947;28;20647;-68
2022/05/04 05:38:16;;;;;;;6.57;0.93;;;24.10;55.20;;;;;;5063961;28;20025;-68
2022/05/04 05:40:44;;;;;;;2.80;0.90;;;24.10;56.70;;;;;;5067415;28;20020;-68
2022/05/04 05:43:11;;;;;;;3.03;0.98;;;24.10;56.60;;;;;;5066933;28;20032;-68
2022/05/04 05:45:38;;;;;;;3.28;0.98;;;24.10;57.10;;;;;;5067815;28;20021;-68
2022/05/04 05:48:06;;;;;;;2.88;1.08;;;24.10;59.10;;;;;;5067980;28;20039;-68
2022/05/04 05:50:36;;;;;;;4.45;2.33;;;24.20;57.30;;;;;;5059497;28;20401;-69
2022/05/04 05:53:04;;;;;;;3.95;0.88;;;24.30;58.00;;;;;;5067073;28;20040;-68
2022/05/04 05:55:31;;;;;;;2.45;0.90;;;24.30;56.00;;;;;;5064760;28;20108;-69
2022/05/04 05:58:01;;;;;;;2.38;0.90;;;24.30;56.60;;;;;;5071189;28;20032;-68
2022/05/04 06:00:28;;;;;;;3.55;1.27;;;24.20;57.80;;;;;;5072381;28;20035;-68
2022/05/04 06:02:55;;;;;;;3.58;1.23;;;24.00;58.30;;;;;;5068209;28;20031;-68
2022/05/04 06:05:22;;;;;;;2.47;1.00;;;23.80;58.90;;;;;;5071787;28;20031;-68
2022/05/04 06:07:50;;;;;;;2.97;1.02;;;23.60;58.50;;;;;;5070189;28;20033;-67
2022/05/04 06:10:17;;;;;;;5.97;1.90;;;23.40;59.00;;;;;;5067576;28;20031;-68
2022/05/04 06:12:44;;;;;;;4.20;1.45;;;23.20;59.40;;;;;;5068260;28;20099;-69
2022/05/04 06:15:14;;;;;;;4.22;1.27;;;23.10;60.00;;;;;;5068714;28;20377;-69
2022/05/04 06:17:42;;;;;;;6.03;1.50;;;23.00;60.40;;;;;;5060317;28;20032;-63
2022/05/04 06:20:09;;;;;;;5.13;1.40;;;22.90;60.70;;;;;;5067792;28;20508;-69
2022/05/04 06:22:37;;;;;;;4.63;1.08;;;22.90;60.40;;;;;;5069322;28;20034;-71
2022/05/04 06:25:04;;;;;;;2.47;0.80;;;23.00;61.20;;;;;;5069850;28;20121;-70
2022/05/04 06:27:32;;;;;;;7.78;1.60;;;23.00;61.40;;;;;;5063838;28;20485;-71
2022/05/04 06:35:30;;;;;;;6.85;1.35;;;22.90;65.00;;;;;;5068047;28;20057;-69
2022/05/04 06:37:58;;;;;;;4.38;1.30;;;22.90;65.80;;;;;;5062112;22;20048;-65
2022/05/04 06:40:28;;;;;;;7.35;2.05;;;22.80;66.00;;;;;;5039870;28;20443;-64
2022/05/04 06:42:55;;;;;;;4.13;1.52;;;22.60;65.40;;;;;;5039959;28;20017;-65
2022/05/04 06:45:23;;;;;;;6.25;1.50;;;22.40;66.60;;;;;;5039344;28;20363;-65
2022/05/04 06:47:50;;;;;;;6.07;1.20;;;22.40;66.80;;;;;;5039094;28;20108;-66
2022/05/04 06:50:18;;;;;;;5.18;1.30;;;22.20;67.90;;;;;;5040317;28;20021;-64
2022/05/04 06:52:45;;;;;;;3.05;1.20;;;22.10;68.90;;;;;;5041231;28;20603;-64
2022/05/04 06:55:13;;;;;;;2.45;1.15;;;22.00;69.00;;;;;;5038041;28;20029;-65
2022/05/04 06:57:41;;;;;;;4.18;1.33;;;21.90;69.40;;;;;;5038929;28;20029;-65
2022/05/04 07:00:09;;;;;;;2.33;1.10;;;21.70;70.40;;;;;;5038528;28;20083;-65
2022/05/04 07:02:36;;;;;;;4.88;2.25;;;21.60;71.00;;;;;;5039208;28;20034;-65
2022/05/04 07:05:05;;;;;;;9.23;1.90;;;21.40;72.30;;;;;;5038725;28;20035;-65
2022/05/04 07:07:33;;;;;;;4.97;1.20;;;21.20;72.20;;;;;;5037791;28;20052;-63
2022/05/04 07:10:01;;;;;;;4.93;1.38;;;21.10;72.00;;;;;;5038635;28;20017;-64
2022/05/04 07:12:28;;;;;;;3.85;1.10;;;20.90;71.30;;;;;;5038218;28;20033;-64
2022/05/04 07:14:59;;;;;;;10.60;2.10;;;20.80;71.50;;;;;;5040469;28;20024;-64
2022/05/04 07:17:27;;;;;;;6.38;1.38;;;20.60;71.80;;;;;;5044290;28;20086;-63
2022/05/04 07:19:55;;;;;;;3.30;1.35;;;20.50;72.80;;;;;;5034976;28;20394;-64
2022/05/04 07:22:23;;;;;;;5.03;1.50;;;20.30;73.60;;;;;;5045561;28;20060;-65
2022/05/04 07:24:50;;;;;;;8.13;1.52;;;20.20;74.40;;;;;;5033128;28;20037;-63
2022/05/04 07:27:18;;;;;;;9.30;1.63;;;20.20;74.50;;;;;;5039848;28;20017;-63
2022/05/04 07:29:46;;;;;;;5.05;1.50;;;20.20;74.60;;;;;;5044451;28;20031;-64
2022/05/04 07:32:14;;;;;;;10.63;1.83;;;20.10;75.00;;;;;;5047252;28;20112;-63
2022/05/04 07:34:41;;;;;;;5.15;1.30;;;20.10;75.30;;;;;;5039087;28;20100;-63
2022/05/04 07:37:09;;;;;;;5.53;1.40;;;20.10;75.50;;;;;;5041474;28;20036;-64
2022/05/04 07:42:29;;;;;;;5.95;1.45;;;20.00;75.40;;;;;;5030944;28;20040;-64
2022/05/04 07:45:04;;;;;;;8.50;1.60;;;19.90;75.80;;;;;;5044389;28;20101;-63
2022/05/04 07:47:34;;;;;;;5.18;1.02;;;19.80;76.20;;;;;;5043906;28;20153;-64
2022/05/04 07:50:06;;;;;;;5.38;1.67;;;19.70;76.60;;;;;;5045530;28;20580;-66
2022/05/04 07:52:34;;;;;;;9.85;1.65;;;19.70;77.50;;;;;;5046283;28;20027;-64
2022/05/04 07:55:02;;;;;;;9.13;2.05;;;19.60;77.20;;;;;;5042339;28;20021;-64
2022/05/04 07:57:30;;;;;;;8.60;1.60;;;19.50;77.10;;;;;;5046924;28;20502;-64
2022/05/04 08:05:34;;;;;;;6.53;1.90;;;19.40;78.20;;;;;;5044257;28;20040;-66
2022/05/04 08:08:01;;;;;;;6.10;1.70;;;19.40;78.60;;;;;;5042569;28;20056;-65
2022/05/04 08:10:28;;;;;;;4.65;1.77;;;19.40;78.70;;;;;;5037461;28;20047;-66
2022/05/04 08:12:58;;;;;;;6.35;1.75;;;19.30;78.00;;;;;;5039342;28;20060;-66
2022/05/04 08:15:26;;;;;;;4.60;1.90;;;19.30;79.30;;;;;;5042110;28;20040;-65
2022/05/04 08:17:54;;;;;;;12.52;2.33;;;19.30;79.40;;;;;;5045322;28;20045;-65
2022/05/04 08:20:21;;;;;;;9.43;2.17;;;19.30;79.90;;;;;;5034811;28;20436;-65
2022/05/04 08:22:48;;;;;;;9.23;1.90;;;19.40;80.00;;;;;;5044312;28;20039;-65
2022/05/04 08:25:17;;;;;;;6.93;2.45;;;19.50;79.40;;;;;;5037423;28;20022;-65
2022/05/04 08:27:45;;;;;;;8.70;1.95;;;19.50;80.10;;;;;;5042819;28;20013;-65
2022/05/04 08:30:14;;;;;;;7.05;2.90;;;19.60;80.20;;;;;;5037365;28;20060;-63
2022/05/04 08:32:45;;;;;;;8.80;2.70;;;19.50;79.50;;;;;;5035683;28;20024;-65
2022/05/04 08:35:13;;;;;;;5.97;2.47;;;19.50;79.90;;;;;;5044048;28;20049;-65
2022/05/04 08:37:41;;;;;;;11.88;2.80;;;19.40;79.50;;;;;;5041381;28;20056;-65
2022/05/04 08:40:09;;;;;;;7.68;2.13;;;19.30;80.00;;;;;;5038076;28;20025;-63
2022/05/04 08:42:43;;;;;;;8.13;2.63;;;19.20;79.80;;;;;;5040943;28;20033;-63
2022/05/04 08:45:12;;;;;;;12.65;2.63;;;19.10;80.10;;;;;;5043439;28;20105;-63
2022/05/04 08:47:40;;;;;;;5.35;2.70;;;19.00;80.20;;;;;;5041167;28;20056;-64
2022/05/04 08:50:10;;;;;;;8.30;2.97;;;19.00;80.80;;;;;;5034799;28;20031;-66
2022/05/04 08:52:42;;;;;;;4.15;3.05;;;18.90;80.60;;;;;;5038821;28;20052;-63
2022/05/04 08:55:10;;;;;;;10.18;4.18;;;18.90;81.10;;;;;;5038621;28;20021;-65
2022/05/04 08:57:39;;;;;;;21.50;4.80;;;18.90;81.40;;;;;;5040204;28;20048;-63
2022/05/04 09:00:10;;;;;;;11.10;4.00;;;18.90;81.80;;;;;;5036499;28;20386;-64
2022/05/04 09:02:39;;;;;;;10.32;3.25;;;18.90;80.70;;;;;;5031827;28;20478;-64
2022/05/04 09:05:25;;;;;;;8.80;3.35;;;19.00;80.00;;;;;;5042238;28;20048;-65
2022/05/04 09:07:55;;;;;;;7.97;3.90;;;19.30;78.60;;;;;;5038213;28;20030;-64
2022/05/04 09:10:26;;;;;;;10.40;3.33;;;19.40;79.10;;;;;;5038889;28;20163;-64
2022/05/04 09:12:59;;;;;;;7.78;3.45;;;19.40;79.90;;;;;;5039815;28;20480;-64
2022/05/04 09:15:29;;;;;;;11.90;2.97;;;19.30;80.60;;;;;;5040883;28;20025;-63
2022/05/04 09:17:57;;;;;;;7.78;3.03;;;19.20;81.50;;;;;;5034767;28;20508;-64
2022/05/04 09:23:32;;;;;;;9.77;2.95;;;19.00;81.80;;;;;;5038790;28;20113;-63
2022/05/04 09:26:07;;;;;;;10.27;3.45;;;18.80;82.30;;;;;;5037117;28;20355;-63
2022/05/04 09:28:35;;;;;;;8.73;3.10;;;18.70;82.90;;;;;;5039281;28;20108;-63
2022/05/04 09:31:07;;;;;;;9.88;3.25;;;18.50;84.40;;;;;;5035472;28;20316;-62
2022/05/04 09:33:38;;;;;;;11.45;2.88;;;18.40;85.00;;;;;;5045498;28;20099;-62
2022/05/04 09:36:07;;;;;;;13.02;3.42;;;18.30;85.10;;;;;;5039255;28;20505;-63
2022/05/04 09:47:22;;;;;;;8.07;2.50;;;18.20;86.30;;;;;;4984801;28;20070;-64
2022/05/04 09:49:50;;;;;;;9.98;2.42;;;18.20;86.20;;;;;;5018572;28;20124;-64
2022/05/04 09:52:25;;;;;;;10.93;3.88;;;18.20;86.30;;;;;;5047142;28;20016;-63
2022/05/04 09:54:53;;;;;;;15.00;2.70;;;18.10;86.20;;;;;;5043340;28;20024;-62
2022/05/04 09:57:21;;;;;;;17.50;3.28;;;18.10;86.20;;;;;;5039323;28;20037;-63
2022/05/04 09:59:50;;;;;;;13.30;3.00;;;18.20;86.40;;;;;;5044351;28;20017;-64
2022/05/04 10:02:18;;;;;;;12.30;3.40;;;18.30;85.90;;;;;;5033675;28;20025;-63
2022/05/04 10:04:47;;;;;;;11.48;2.58;;;18.30;84.90;;;;;;5048606;28;20025;-63
2022/05/04 10:07:15;;;;;;;11.68;3.50;;;18.40;84.20;;;;;;5039480;28;20517;-64
2022/05/04 10:09:42;;;;;;;9.70;3.58;;;18.40;84.20;;;;;;5044322;28;20071;-64
2022/05/04 10:12:10;;;;;;;6.63;2.50;;;18.50;84.00;;;;;;5038467;28;20021;-64
2022/05/04 10:14:40;;;;;;;9.43;2.72;;;18.50;82.80;;;;;;5040675;28;20028;-64
2022/05/04 10:17:22;;;;;;;8.93;3.20;;;18.60;83.00;;;;;;5048643;28;20033;-64
2022/05/04 10:20:09;;;;;;;10.52;3.13;;;18.60;81.90;;;;;;5047637;28;20032;-62
2022/05/04 10:22:44;;;;;;;8.82;2.70;;;18.60;81.90;;;;;;5057300;28;20038;-63
2022/05/04 10:25:13;;;;;;;10.77;3.10;;;18.60;81.80;;;;;;5043964;28;20029;-63
2022/05/04 10:27:46;;;;;;;7.03;2.75;;;18.70;82.00;;;;;;5043411;28;20037;-63
2022/05/04 10:30:33;;;;;;;10.68;2.90;;;18.70;81.90;;;;;;5044128;28;20436;-64
2022/05/04 10:33:08;;;;;;;9.43;2.53;;;18.70;82.00;;;;;;5043135;28;20056;-64
2022/05/04 10:35:45;;;;;;;6.68;2.47;;;18.70;81.70;;;;;;5041771;28;20025;-63
2022/05/04 10:38:14;;;;;;;9.05;2.67;;;18.70;81.60;;;;;;5042346;28;20052;-63
2022/05/04 10:40:51;;;;;;;8.85;2.15;;;18.70;82.50;;;;;;5037113;28;20064;-63
2022/05/04 10:43:38;;;;;;;6.70;2.65;;;18.70;82.20;;;;;;5043889;28;20021;-64
2022/05/04 10:46:11;;;;;;;13.23;3.22;;;18.60;82.10;;;;;;5039984;28;20079;-64
2022/05/04 10:48:59;;;;;;;9.68;3.20;;;18.60;82.80;;;;;;5046596;28;20052;-63
2022/05/04 10:51:33;;;;;;;13.95;3.15;;;18.60;83.40;;;;;;5038677;28;20578;-63
2022/05/04 10:54:12;;;;;;;7.20;3.05;;;18.60;83.40;;;;;;5045443;28;20108;-63
2022/05/04 10:56:50;;;;;;;10.27;3.58;;;18.50;82.90;;;;;;5038800;28;20037;-62
2022/05/04 10:59:28;;;;;;;7.25;3.22;;;18.50;82.60;;;;;;5046378;28;20025;-63
2022/05/04 11:02:04;;;;;;;13.85;3.72;;;18.40;82.80;;;;;;5041622;28;20029;-64
2022/05/04 11:04:32;;;;;;;7.07;3.22;;;18.40;82.70;;;;;;5042528;28;20021;-62
2022/05/04 11:06:59;;;;;;;8.73;3.47;;;18.40;83.30;;;;;;5046595;28;20485;-63
2022/05/04 11:09:32;;;;;;;7.93;3.50;;;18.40;83.20;;;;;;5045797;28;20112;-61
2022/05/04 11:12:05;;;;;;;8.57;3.10;;;18.40;83.20;;;;;;5048852;28;20778;-63
2022/05/04 11:14:34;;;;;;;8.32;3.50;;;18.30;83.10;;;;;;5044176;28;20029;-63
2022/05/04 11:17:08;;;;;;;9.82;3.95;;;18.30;83.60;;;;;;5039967;28;20048;-63
2022/05/04 11:19:35;;;;;;;7.45;3.35;;;18.20;83.90;;;;;;5041276;28;20456;-64
2022/05/04 11:22:02;;;;;;;9.20;3.10;;;18.20;84.40;;;;;;5042117;28;20028;-62
2022/05/04 11:24:30;;;;;;;8.75;3.45;;;18.20;84.50;;;;;;5040700;28;20025;-61
2022/05/04 11:26:57;;;;;;;9.52;3.15;;;18.10;84.70;;;;;;5044549;28;20389;-63
2022/05/04 11:29:26;;;;;;;8.25;3.80;;;18.10;85.80;;;;;;5040055;28;20089;-63
2022/05/04 11:31:56;;;;;;;11.77;4.05;;;18.00;86.30;;;;;;5037278;28;20638;-64
2022/05/04 11:34:29;;;;;;;7.68;4.28;;;18.10;86.10;;;;;;5043931;28;20032;-63
2022/05/04 11:37:01;;;;;;;12.68;3.25;;;18.10;86.30;;;;;;5043799;28;20075;-63
2022/05/04 11:39:30;;;;;;;7.90;2.83;;;18.10;86.60;;;;;;5039910;28;20048;-63
2022/05/04 11:42:02;;;;;;;10.23;3.88;;;18.10;86.40;;;;;;5042241;28;20580;-66
2022/05/04 11:44:30;;;;;;;7.38;3.53;;;18.00;86.30;;;;;;5035006;28;20022;-66
2022/05/04 11:47:03;;;;;;;7.72;2.97;;;18.00;86.40;;;;;;5045251;28;20029;-64
2022/05/04 11:49:36;;;;;;;10.88;3.47;;;17.90;86.60;;;;;;5041910;28;20040;-65
2022/05/04 11:52:05;;;;;;;13.32;3.42;;;17.90;87.90;;;;;;5041505;28;20017;-63
2022/05/04 11:54:33;;;;;;;7.03;3.17;;;17.90;87.80;;;;;;5057352;28;20116;-64
2022/05/04 11:57:00;;;;;;;6.97;3.25;;;17.90;87.80;;;;;;5048690;28;20041;-64
2022/05/04 11:59:34;;;;;;;7.88;3.75;;;17.90;88.00;;;;;;5047623;28;20017;-64
2022/05/04 12:02:02;;;;;;;9.07;3.30;;;17.90;87.90;;;;;;5045259;28;20040;-64
2022/05/04 12:04:29;;;;;;;7.47;3.53;;;17.90;87.90;;;;;;5042541;28;20100;-63
2022/05/04 12:07:00;;;;;;;8.77;3.45;;;17.80;88.30;;;;;;5033046;28;20026;-63
2022/05/04 12:09:27;;;;;;;6.10;3.20;;;17.80;88.40;;;;;;5038605;28;20032;-63
2022/05/04 12:11:55;;;;;;;8.25;3.67;;;17.80;88.50;;;;;;5062919;28;20023;-63
2022/05/04 12:14:22;;;;;;;8.75;3.53;;;17.80;88.70;;;;;;5038864;28;20021;-64
2022/05/04 12:16:50;;;;;;;11.48;4.30;;;17.70;89.00;;;;;;5060152;28;20033;-64
2022/05/04 12:19:19;;;;;;;7.75;4.05;;;17.70;89.30;;;;;;5049584;28;20401;-64
2022/05/04 12:21:47;;;;;;;9.98;4.18;;;17.70;89.40;;;;;;5036711;28;20770;-65
2022/05/04 12:24:14;;;;;;;13.88;3.72;;;17.60;89.50;;;;;;5029505;28;20072;-65
2022/05/04 12:26:42;;;;;;;8.57;4.53;;;17.60;89.60;;;;;;5040183;28;20026;-65
2022/05/04 12:34:44;;;;;;;6.03;4.05;;;17.50;90.00;;;;;;5047416;28;20239;-65
2022/05/04 12:37:14;;;;;;;15.18;4.95;;;17.40;89.80;;;;;;5046212;28;20041;-65
2022/05/04 12:39:44;;;;;;;11.10;4.95;;;17.30;90.30;;;;;;5047500;28;20071;-65
2022/05/04 12:42:16;;;;;;;10.98;4.05;;;17.30;90.30;;;;;;5045006;28;20202;-65
2022/05/04 12:44:50;;;;;;;12.55;4.53;;;17.40;90.20;;;;;;5044720;28;20025;-64
2022/05/04 12:47:17;;;;;;;;;;;17.40;90.10;;;;;;5044722;28;20512;-65
2022/05/04 12:49:45;;;;;;;9.23;3.95;;;17.50;90.10;;;;;;5047606;28;19908;-64
2022/05/04 12:52:13;;;;;;;10.95;3.90;;;17.50;90.00;;;;;;5033042;28;20022;-64
2022/05/04 12:54:40;;;;;;;13.25;4.03;;;17.50;89.90;;;;;;5048873;28;20021;-64
2022/05/04 12:57:07;;;;;;;7.10;3.50;;;17.40;90.00;;;;;;5045182;28;20036;-63
2022/05/04 12:59:35;;;;;;;9.50;4.57;;;17.40;90.00;;;;;;5044986;28;20033;-65
2022/05/04 13:02:02;;;;;;;7.18;4.18;;;17.40;90.30;;;;;;5044839;28;20021;-64
2022/05/04 13:04:29;;;;;;;10.85;4.82;;;17.30;90.30;;;;;;5041411;28;20155;-65
2022/05/04 13:06:56;;;;;;;11.57;4.63;;;17.30;90.40;;;;;;5047233;28;20021;-64
2022/05/04 13:09:23;;;;;;;9.32;4.03;;;17.30;90.40;;;;;;5042785;28;20149;-64
2022/05/04 13:11:51;;;;;;;10.38;4.25;;;17.20;90.50;;;;;;5032801;28;20049;-64
2022/05/04 13:14:18;;;;;;;11.35;4.07;;;17.10;90.80;;;;;;5047176;28;20041;-64
2022/05/04 13:16:45;;;;;;;7.82;3.92;;;17.10;90.90;;;;;;5043712;28;20135;-64
2022/05/04 13:19:12;;;;;;;7.28;4.05;;;17.10;91.00;;;;;;5041260;28;20385;-64
2022/05/04 13:21:40;;;;;;;7.75;3.60;;;17.10;91.10;;;;;;5041170;28;20017;-64
2022/05/04 13:24:07;;;;;;;11.15;3.85;;;17.10;91.00;;;;;;5041511;28;20021;-65
2022/05/04 13:26:34;;;;;;;8.02;3.85;;;17.10;90.90;;;;;;5037935;28;20021;-63
2022/05/04 13:29:02;;;;;;;9.40;3.75;;;17.20;90.90;;;;;;5045688;28;20033;-65